DLH2LC EDXW-EDDF
Flight info
| Callsign | DLH2LC |
|---|---|
| Flight time | 0h 56m |
| Altitude | 39000 |
| Route | OLDIP1B/32 OLDIP DCT BADOS DCT OMWEG Y348 ELSOB DCT RIMET T157 KERAX KERAX5A |
| Aircraft | A319/M-SDE3FGHIRWY/LB1 |
Departure
| Time | 2026-05-04 18:00 |
|---|---|
| Airport | Westerland Sylt Airport (EDXW) |
Arrival
| Time | 2026-05-04 18:57 |
|---|---|
| Airport | Frankfurt Main Airport (EDDF) |
| Time | Latitude | Longitude | Altitude | Speed | Heading |
|---|---|---|---|---|---|
| 2026-05-04 17:41 | 54.91312 | 8.33112 | 33 ft | 0 kts | 91° |
| 2026-05-04 17:54 | 54.91312 | 8.33113 | 33 ft | 1 kts | 91° |
| 2026-05-04 17:54 | 54.91311 | 8.33151 | 33 ft | 4 kts | 96° |
| 2026-05-04 17:54 | 54.91293 | 8.33183 | 33 ft | 4 kts | 160° |
| 2026-05-04 17:54 | 54.91263 | 8.33183 | 35 ft | 5 kts | 182° |
| 2026-05-04 17:55 | 54.91224 | 8.33180 | 37 ft | 7 kts | 180° |
| 2026-05-04 17:55 | 54.91157 | 8.33181 | 37 ft | 14 kts | 179° |
| 2026-05-04 17:55 | 54.91052 | 8.33171 | 37 ft | 15 kts | 194° |
| 2026-05-04 17:55 | 54.90961 | 8.33112 | 40 ft | 12 kts | 185° |
| 2026-05-04 17:56 | 54.90869 | 8.33180 | 38 ft | 18 kts | 159° |
| 2026-05-04 17:56 | 54.90735 | 8.33225 | 36 ft | 21 kts | 174° |
| 2026-05-04 17:56 | 54.90589 | 8.33245 | 32 ft | 21 kts | 175° |
| 2026-05-04 17:56 | 54.90445 | 8.33312 | 31 ft | 22 kts | 153° |
| 2026-05-04 17:57 | 54.90328 | 8.33484 | 30 ft | 22 kts | 128° |
| 2026-05-04 17:57 | 54.90263 | 8.33727 | 29 ft | 22 kts | 102° |
| 2026-05-04 17:57 | 54.90240 | 8.33992 | 29 ft | 22 kts | 97° |
| 2026-05-04 17:57 | 54.90247 | 8.34253 | 30 ft | 21 kts | 80° |
| 2026-05-04 17:58 | 54.90273 | 8.34500 | 30 ft | 20 kts | 80° |
| 2026-05-04 17:58 | 54.90297 | 8.34739 | 36 ft | 22 kts | 79° |
| 2026-05-04 17:58 | 54.90326 | 8.35011 | 40 ft | 15 kts | 79° |
| 2026-05-04 17:58 | 54.90374 | 8.35152 | 42 ft | 10 kts | 50° |
| 2026-05-04 17:59 | 54.90427 | 8.35156 | 42 ft | 0 kts | 325° |
| 2026-05-04 18:00 | 54.90505 | 8.35061 | 41 ft | 47 kts | 324° |
| 2026-05-04 18:00 | 54.90982 | 8.34470 | 45 ft | 117 kts | 324° |
| 2026-05-04 18:00 | 54.91759 | 8.33528 | 282 ft | 146 kts | 325° |
| 2026-05-04 18:00 | 54.92602 | 8.32524 | 981 ft | 148 kts | 324° |
| 2026-05-04 18:01 | 54.93479 | 8.31463 | 1518 ft | 164 kts | 324° |
| 2026-05-04 18:01 | 54.94452 | 8.30217 | 2009 ft | 183 kts | 321° |
| 2026-05-04 18:01 | 54.95502 | 8.28807 | 2566 ft | 201 kts | 320° |
| 2026-05-04 18:02 | 54.97789 | 8.25825 | 4361 ft | 207 kts | 317° |
| 2026-05-04 18:02 | 54.98565 | 8.23752 | 5165 ft | 210 kts | 280° |
| 2026-05-04 18:02 | 54.98336 | 8.21274 | 6013 ft | 214 kts | 241° |
| 2026-05-04 18:02 | 54.97502 | 8.19152 | 6952 ft | 213 kts | 235° |
| 2026-05-04 18:03 | 54.96591 | 8.17090 | 7759 ft | 217 kts | 233° |
| 2026-05-04 18:03 | 54.95657 | 8.15025 | 8617 ft | 219 kts | 234° |
| 2026-05-04 18:03 | 54.94446 | 8.13202 | 9059 ft | 248 kts | 208° |
| 2026-05-04 18:03 | 54.92649 | 8.12768 | 9491 ft | 281 kts | 173° |
| 2026-05-04 18:04 | 54.90794 | 8.14104 | 10186 ft | 298 kts | 154° |
| 2026-05-04 18:04 | 54.88980 | 8.16070 | 10535 ft | 324 kts | 148° |
| 2026-05-04 18:04 | 54.85061 | 8.20983 | 11251 ft | 365 kts | 146° |
| 2026-05-04 18:05 | 54.82995 | 8.23604 | 11946 ft | 371 kts | 147° |
| 2026-05-04 18:05 | 54.80882 | 8.26225 | 12699 ft | 376 kts | 148° |
| 2026-05-04 18:05 | 54.78724 | 8.28832 | 13448 ft | 380 kts | 148° |
| 2026-05-04 18:05 | 54.76527 | 8.31435 | 14146 ft | 385 kts | 149° |
| 2026-05-04 18:06 | 54.72069 | 8.36641 | 15476 ft | 393 kts | 149° |
| 2026-05-04 18:06 | 54.69792 | 8.39285 | 16146 ft | 396 kts | 149° |
| 2026-05-04 18:06 | 54.67493 | 8.41959 | 16823 ft | 400 kts | 149° |
| 2026-05-04 18:07 | 54.65177 | 8.44658 | 17494 ft | 403 kts | 149° |
| 2026-05-04 18:07 | 54.62839 | 8.47380 | 18163 ft | 407 kts | 149° |
| 2026-05-04 18:07 | 54.60481 | 8.50125 | 18744 ft | 411 kts | 149° |
| 2026-05-04 18:07 | 54.58104 | 8.52894 | 19323 ft | 414 kts | 149° |
| 2026-05-04 18:08 | 54.55705 | 8.55686 | 19892 ft | 417 kts | 149° |
| 2026-05-04 18:08 | 54.53289 | 8.58491 | 20448 ft | 420 kts | 149° |
| 2026-05-04 18:08 | 54.50858 | 8.61310 | 20978 ft | 424 kts | 150° |
| 2026-05-04 18:08 | 54.48432 | 8.64119 | 21459 ft | 427 kts | 150° |
| 2026-05-04 18:09 | 54.43469 | 8.69850 | 22259 ft | 433 kts | 151° |
| 2026-05-04 18:09 | 54.38408 | 8.75684 | 23134 ft | 443 kts | 152° |
| 2026-05-04 18:10 | 54.35839 | 8.78637 | 23583 ft | 446 kts | 152° |
| 2026-05-04 18:10 | 54.33249 | 8.81604 | 23978 ft | 449 kts | 152° |
| 2026-05-04 18:10 | 54.30645 | 8.84581 | 24403 ft | 451 kts | 152° |
| 2026-05-04 18:10 | 54.28030 | 8.87570 | 24833 ft | 453 kts | 152° |
| 2026-05-04 18:11 | 54.25405 | 8.90563 | 25262 ft | 454 kts | 153° |
| 2026-05-04 18:11 | 54.22771 | 8.93562 | 25684 ft | 456 kts | 153° |
| 2026-05-04 18:11 | 54.20127 | 8.96565 | 26103 ft | 457 kts | 153° |
| 2026-05-04 18:11 | 54.17473 | 8.99571 | 26521 ft | 459 kts | 153° |
| 2026-05-04 18:12 | 54.14805 | 9.02592 | 26887 ft | 460 kts | 153° |
| 2026-05-04 18:12 | 54.12135 | 9.05618 | 27282 ft | 461 kts | 153° |
| 2026-05-04 18:12 | 54.09495 | 9.08611 | 27678 ft | 463 kts | 153° |
| 2026-05-04 18:12 | 54.06808 | 9.11651 | 28061 ft | 464 kts | 153° |
| 2026-05-04 18:13 | 54.04117 | 9.14689 | 28445 ft | 465 kts | 153° |
| 2026-05-04 18:13 | 54.01416 | 9.17734 | 28819 ft | 466 kts | 153° |
| 2026-05-04 18:13 | 53.95993 | 9.23822 | 29635 ft | 466 kts | 154° |
| 2026-05-04 18:14 | 53.94201 | 9.25828 | 29999 ft | 465 kts | 154° |
| 2026-05-04 18:14 | 53.91509 | 9.28838 | 30448 ft | 463 kts | 154° |
| 2026-05-04 18:14 | 53.88824 | 9.31834 | 30823 ft | 463 kts | 154° |
| 2026-05-04 18:15 | 53.82581 | 9.38785 | 31702 ft | 462 kts | 153° |
| 2026-05-04 18:15 | 53.77201 | 9.44753 | 32352 ft | 464 kts | 153° |
| 2026-05-04 18:15 | 53.75409 | 9.46738 | 32563 ft | 465 kts | 153° |
| 2026-05-04 18:16 | 53.72699 | 9.49736 | 32903 ft | 466 kts | 153° |
| 2026-05-04 18:16 | 53.69957 | 9.52650 | 33253 ft | 463 kts | 159° |
| 2026-05-04 18:16 | 53.67004 | 9.54569 | 33588 ft | 450 kts | 173° |
| 2026-05-04 18:17 | 53.60877 | 9.56501 | 34228 ft | 448 kts | 176° |
| 2026-05-04 18:17 | 53.57817 | 9.57424 | 34655 ft | 445 kts | 176° |
| 2026-05-04 18:17 | 53.51741 | 9.59252 | 35374 ft | 443 kts | 175° |
| 2026-05-04 18:18 | 53.48700 | 9.60166 | 35668 ft | 444 kts | 175° |
| 2026-05-04 18:18 | 53.45659 | 9.61081 | 35954 ft | 444 kts | 175° |
| 2026-05-04 18:18 | 53.42659 | 9.61985 | 36206 ft | 445 kts | 175° |
| 2026-05-04 18:18 | 53.39608 | 9.62903 | 36473 ft | 445 kts | 175° |
| 2026-05-04 18:19 | 53.33514 | 9.64728 | 37013 ft | 444 kts | 174° |
| 2026-05-04 18:19 | 53.30475 | 9.65637 | 37357 ft | 443 kts | 174° |
| 2026-05-04 18:19 | 53.27443 | 9.66544 | 37633 ft | 443 kts | 174° |
| 2026-05-04 18:20 | 53.24409 | 9.67455 | 37887 ft | 443 kts | 174° |
| 2026-05-04 18:20 | 53.21381 | 9.68360 | 38133 ft | 443 kts | 174° |
| 2026-05-04 18:20 | 53.18345 | 9.69261 | 38368 ft | 443 kts | 174° |
| 2026-05-04 18:20 | 53.15308 | 9.70170 | 38592 ft | 444 kts | 172° |
| 2026-05-04 18:21 | 53.12295 | 9.71375 | 38768 ft | 446 kts | 169° |
| 2026-05-04 18:21 | 53.09289 | 9.72676 | 38917 ft | 447 kts | 169° |
| 2026-05-04 18:21 | 53.03265 | 9.75290 | 38960 ft | 447 kts | 169° |
| 2026-05-04 18:22 | 52.97281 | 9.77883 | 38960 ft | 447 kts | 169° |
| 2026-05-04 18:22 | 52.91259 | 9.80485 | 38957 ft | 447 kts | 169° |
| 2026-05-04 18:23 | 52.85240 | 9.83082 | 38956 ft | 447 kts | 169° |
| 2026-05-04 18:23 | 52.79226 | 9.85691 | 38952 ft | 447 kts | 169° |
| 2026-05-04 18:24 | 52.73210 | 9.88303 | 38954 ft | 447 kts | 169° |
| 2026-05-04 18:24 | 52.67197 | 9.90907 | 38961 ft | 447 kts | 169° |
| 2026-05-04 18:25 | 52.61219 | 9.93490 | 38963 ft | 447 kts | 169° |
| 2026-05-04 18:25 | 52.55200 | 9.96080 | 38956 ft | 447 kts | 169° |
| 2026-05-04 18:26 | 52.49175 | 9.98660 | 38959 ft | 447 kts | 169° |
| 2026-05-04 18:26 | 52.43149 | 10.01208 | 38957 ft | 447 kts | 169° |
| 2026-05-04 18:27 | 52.37098 | 10.03368 | 38967 ft | 442 kts | 177° |
| 2026-05-04 18:27 | 52.31029 | 10.04483 | 38979 ft | 442 kts | 177° |
| 2026-05-04 18:28 | 52.24922 | 10.05596 | 38986 ft | 441 kts | 177° |
| 2026-05-04 18:28 | 52.18827 | 10.06710 | 38995 ft | 441 kts | 177° |
| 2026-05-04 18:29 | 52.12735 | 10.07816 | 38995 ft | 440 kts | 177° |
| 2026-05-04 18:29 | 52.06652 | 10.08922 | 38986 ft | 440 kts | 177° |
| 2026-05-04 18:30 | 51.97566 | 10.10560 | 38987 ft | 440 kts | 177° |
| 2026-05-04 18:30 | 51.94511 | 10.11104 | 38505 ft | 443 kts | 177° |
| 2026-05-04 18:31 | 51.91449 | 10.11650 | 37835 ft | 442 kts | 177° |
| 2026-05-04 18:31 | 51.88409 | 10.12197 | 37269 ft | 438 kts | 178° |
| 2026-05-04 18:31 | 51.85387 | 10.12741 | 36633 ft | 436 kts | 178° |
| 2026-05-04 18:31 | 51.82381 | 10.13278 | 35982 ft | 434 kts | 178° |
| 2026-05-04 18:32 | 51.79388 | 10.13810 | 35342 ft | 432 kts | 179° |
| 2026-05-04 18:32 | 51.76402 | 10.14343 | 34686 ft | 431 kts | 179° |
| 2026-05-04 18:32 | 51.73462 | 10.14872 | 34021 ft | 430 kts | 179° |
| 2026-05-04 18:32 | 51.70489 | 10.15401 | 33208 ft | 430 kts | 179° |
| 2026-05-04 18:33 | 51.67513 | 10.15926 | 32316 ft | 431 kts | 179° |
| 2026-05-04 18:33 | 51.64523 | 10.16451 | 31389 ft | 434 kts | 179° |
| 2026-05-04 18:33 | 51.61511 | 10.16981 | 30420 ft | 437 kts | 179° |
| 2026-05-04 18:33 | 51.58478 | 10.17517 | 29301 ft | 441 kts | 178° |
| 2026-05-04 18:34 | 51.55414 | 10.18058 | 28566 ft | 446 kts | 178° |
| 2026-05-04 18:34 | 51.52317 | 10.18605 | 27879 ft | 449 kts | 178° |
| 2026-05-04 18:34 | 51.49197 | 10.19157 | 27250 ft | 452 kts | 178° |
| 2026-05-04 18:34 | 51.46107 | 10.19701 | 26738 ft | 454 kts | 178° |
| 2026-05-04 18:35 | 51.42959 | 10.20258 | 26266 ft | 456 kts | 177° |
| 2026-05-04 18:35 | 51.39805 | 10.20817 | 26018 ft | 457 kts | 177° |
| 2026-05-04 18:35 | 51.36635 | 10.21374 | 25764 ft | 459 kts | 177° |
| 2026-05-04 18:35 | 51.33459 | 10.21875 | 25506 ft | 458 kts | 180° |
| 2026-05-04 18:36 | 51.30281 | 10.21880 | 25259 ft | 456 kts | 184° |
| 2026-05-04 18:36 | 51.27111 | 10.21779 | 25014 ft | 454 kts | 186° |
| 2026-05-04 18:36 | 51.24038 | 10.20871 | 24770 ft | 447 kts | 200° |
| 2026-05-04 18:36 | 51.21220 | 10.18854 | 24536 ft | 443 kts | 209° |
| 2026-05-04 18:37 | 51.18522 | 10.16617 | 24310 ft | 443 kts | 209° |
| 2026-05-04 18:37 | 51.15799 | 10.14337 | 24080 ft | 442 kts | 210° |
| 2026-05-04 18:37 | 51.13088 | 10.12056 | 23939 ft | 440 kts | 209° |
| 2026-05-04 18:37 | 51.10378 | 10.09784 | 23987 ft | 440 kts | 209° |
| 2026-05-04 18:38 | 51.07666 | 10.07521 | 23984 ft | 440 kts | 209° |
| 2026-05-04 18:38 | 51.04961 | 10.05274 | 23973 ft | 432 kts | 209° |
| 2026-05-04 18:38 | 51.02369 | 10.03130 | 23979 ft | 409 kts | 209° |
| 2026-05-04 18:38 | 50.99913 | 10.01103 | 23913 ft | 389 kts | 209° |
| 2026-05-04 18:39 | 50.97508 | 9.99118 | 23043 ft | 391 kts | 209° |
| 2026-05-04 18:39 | 50.95095 | 9.97119 | 22273 ft | 391 kts | 209° |
| 2026-05-04 18:39 | 50.92693 | 9.95127 | 21639 ft | 388 kts | 209° |
| 2026-05-04 18:39 | 50.90343 | 9.93179 | 21039 ft | 385 kts | 209° |
| 2026-05-04 18:40 | 50.87974 | 9.91224 | 20497 ft | 382 kts | 209° |
| 2026-05-04 18:40 | 50.85622 | 9.89289 | 19964 ft | 380 kts | 208° |
| 2026-05-04 18:40 | 50.83283 | 9.87364 | 19442 ft | 378 kts | 209° |
| 2026-05-04 18:40 | 50.80961 | 9.85454 | 18930 ft | 375 kts | 208° |
| 2026-05-04 18:41 | 50.78655 | 9.83559 | 18422 ft | 373 kts | 208° |
| 2026-05-04 18:41 | 50.76360 | 9.81678 | 17859 ft | 370 kts | 208° |
| 2026-05-04 18:41 | 50.74080 | 9.79813 | 17300 ft | 368 kts | 208° |
| 2026-05-04 18:41 | 50.71816 | 9.77961 | 16755 ft | 365 kts | 208° |
| 2026-05-04 18:42 | 50.69575 | 9.76129 | 16208 ft | 362 kts | 208° |
| 2026-05-04 18:42 | 50.67377 | 9.74336 | 15682 ft | 359 kts | 208° |
| 2026-05-04 18:42 | 50.65165 | 9.72533 | 15139 ft | 356 kts | 208° |
| 2026-05-04 18:42 | 50.62971 | 9.70745 | 14608 ft | 354 kts | 207° |
| 2026-05-04 18:43 | 50.60794 | 9.68970 | 14086 ft | 351 kts | 207° |
| 2026-05-04 18:43 | 50.58632 | 9.67210 | 13546 ft | 349 kts | 207° |
| 2026-05-04 18:43 | 50.56486 | 9.65467 | 12986 ft | 345 kts | 207° |
| 2026-05-04 18:43 | 50.54361 | 9.63749 | 12434 ft | 342 kts | 207° |
| 2026-05-04 18:44 | 50.52260 | 9.62051 | 11886 ft | 338 kts | 207° |
| 2026-05-04 18:44 | 50.50913 | 9.60850 | 11527 ft | 335 kts | 213° |
| 2026-05-04 18:44 | 50.48595 | 9.57707 | 10806 ft | 332 kts | 227° |
| 2026-05-04 18:44 | 50.47173 | 9.54877 | 10330 ft | 327 kts | 230° |
| 2026-05-04 18:45 | 50.45794 | 9.52152 | 10194 ft | 311 kts | 230° |
| 2026-05-04 18:45 | 50.44467 | 9.49525 | 9856 ft | 304 kts | 230° |
| 2026-05-04 18:45 | 50.43161 | 9.46937 | 9375 ft | 302 kts | 230° |
| 2026-05-04 18:45 | 50.41860 | 9.44368 | 8849 ft | 300 kts | 230° |
| 2026-05-04 18:46 | 50.40560 | 9.41811 | 8328 ft | 300 kts | 230° |
| 2026-05-04 18:46 | 50.39242 | 9.39290 | 7882 ft | 296 kts | 228° |
| 2026-05-04 18:46 | 50.37906 | 9.36931 | 7757 ft | 282 kts | 226° |
| 2026-05-04 18:46 | 50.36603 | 9.34722 | 7612 ft | 271 kts | 226° |
| 2026-05-04 18:47 | 50.35343 | 9.32617 | 7467 ft | 268 kts | 226° |
| 2026-05-04 18:47 | 50.34069 | 9.30492 | 7317 ft | 267 kts | 226° |
| 2026-05-04 18:47 | 50.32800 | 9.28369 | 7166 ft | 267 kts | 226° |
| 2026-05-04 18:47 | 50.31536 | 9.26238 | 7051 ft | 267 kts | 226° |
| 2026-05-04 18:48 | 50.30276 | 9.24104 | 6971 ft | 266 kts | 226° |
| 2026-05-04 18:48 | 50.29022 | 9.21976 | 6953 ft | 266 kts | 226° |
| 2026-05-04 18:48 | 50.27781 | 9.19868 | 6789 ft | 263 kts | 226° |
| 2026-05-04 18:48 | 50.26537 | 9.17760 | 6667 ft | 264 kts | 226° |
| 2026-05-04 18:49 | 50.25292 | 9.15652 | 6550 ft | 264 kts | 226° |
| 2026-05-04 18:49 | 50.24047 | 9.13547 | 6431 ft | 264 kts | 226° |
| 2026-05-04 18:49 | 50.22820 | 9.11469 | 6305 ft | 264 kts | 226° |
| 2026-05-04 18:49 | 50.21577 | 9.09366 | 6177 ft | 263 kts | 226° |
| 2026-05-04 18:50 | 50.20336 | 9.07274 | 6046 ft | 259 kts | 226° |
| 2026-05-04 18:50 | 50.19145 | 9.05262 | 5922 ft | 246 kts | 226° |
| 2026-05-04 18:50 | 50.18011 | 9.03350 | 5788 ft | 235 kts | 226° |
| 2026-05-04 18:50 | 50.16909 | 9.01500 | 5659 ft | 232 kts | 226° |
| 2026-05-04 18:51 | 50.15809 | 8.99657 | 5448 ft | 231 kts | 226° |
| 2026-05-04 18:51 | 50.14711 | 8.97818 | 5254 ft | 232 kts | 226° |
| 2026-05-04 18:51 | 50.13616 | 8.95979 | 5054 ft | 232 kts | 226° |
| 2026-05-04 18:51 | 50.12539 | 8.94108 | 4852 ft | 232 kts | 232° |
| 2026-05-04 18:52 | 50.11850 | 8.91943 | 4739 ft | 222 kts | 248° |
| 2026-05-04 18:52 | 50.11326 | 8.89676 | 4484 ft | 218 kts | 250° |
| 2026-05-04 18:52 | 50.10828 | 8.87513 | 4215 ft | 212 kts | 249° |
| 2026-05-04 18:52 | 50.10334 | 8.85399 | 3952 ft | 204 kts | 249° |
| 2026-05-04 18:53 | 50.09850 | 8.83346 | 3671 ft | 199 kts | 249° |
| 2026-05-04 18:53 | 50.09379 | 8.81345 | 3409 ft | 195 kts | 250° |
| 2026-05-04 18:53 | 50.08917 | 8.79387 | 3154 ft | 191 kts | 250° |
| 2026-05-04 18:53 | 50.08466 | 8.77474 | 2901 ft | 185 kts | 251° |
| 2026-05-04 18:54 | 50.08032 | 8.75639 | 2661 ft | 176 kts | 251° |
| 2026-05-04 18:54 | 50.07630 | 8.73919 | 2452 ft | 159 kts | 253° |
| 2026-05-04 18:54 | 50.07407 | 8.72338 | 2213 ft | 143 kts | 263° |
| 2026-05-04 18:54 | 50.07260 | 8.70842 | 1932 ft | 137 kts | 263° |
| 2026-05-04 18:55 | 50.07063 | 8.69416 | 1777 ft | 135 kts | 257° |
| 2026-05-04 18:55 | 50.06412 | 8.66690 | 1495 ft | 135 kts | 250° |
| 2026-05-04 18:55 | 50.06073 | 8.65321 | 1334 ft | 136 kts | 251° |
| 2026-05-04 18:56 | 50.05751 | 8.63941 | 1139 ft | 134 kts | 252° |
| 2026-05-04 18:56 | 50.05428 | 8.62589 | 951 ft | 136 kts | 252° |
| 2026-05-04 18:56 | 50.05105 | 8.61203 | 791 ft | 136 kts | 253° |
| 2026-05-04 18:56 | 50.04783 | 8.59843 | 580 ft | 131 kts | 252° |
| 2026-05-04 18:57 | 50.04474 | 8.58540 | 405 ft | 127 kts | 253° |
| 2026-05-04 18:57 | 50.04203 | 8.57393 | 366 ft | 97 kts | 249° |
| 2026-05-04 18:57 | 50.04025 | 8.56648 | 357 ft | 41 kts | 250° |
| 2026-05-04 18:57 | 50.04002 | 8.56314 | 352 ft | 23 kts | 280° |
| 2026-05-04 18:58 | 50.04020 | 8.56167 | 355 ft | 4 kts | 293° |
| 2026-05-04 18:58 | 50.04029 | 8.56149 | 357 ft | 0 kts | 310° |
| 2026-05-04 18:58 | 50.04029 | 8.56148 | 357 ft | 0 kts | 310° |
| 2026-05-04 18:59 | 50.04033 | 8.56143 | 356 ft | 1 kts | 316° |
| 2026-05-04 18:59 | 50.04037 | 8.56138 | 354 ft | 1 kts | 323° |
| 2026-05-04 18:59 | 50.04041 | 8.56135 | 355 ft | 1 kts | 327° |
| 2026-05-04 18:59 | 50.04043 | 8.56133 | 355 ft | 0 kts | 331° |
| 2026-05-04 19:00 | 50.04044 | 8.56133 | 351 ft | 0 kts | 332° |
| 2026-05-04 19:01 | 50.04056 | 8.56127 | 357 ft | 2 kts | 346° |
| 2026-05-04 19:01 | 50.04075 | 8.56131 | 351 ft | 6 kts | 15° |
| 2026-05-04 19:01 | 50.04112 | 8.56213 | 359 ft | 12 kts | 70° |
| 2026-05-04 19:01 | 50.04140 | 8.56334 | 360 ft | 13 kts | 69° |
| 2026-05-04 19:02 | 50.04175 | 8.56478 | 360 ft | 15 kts | 70° |
| 2026-05-04 19:02 | 50.04215 | 8.56646 | 360 ft | 17 kts | 70° |
| 2026-05-04 19:02 | 50.04254 | 8.56808 | 359 ft | 16 kts | 70° |
| 2026-05-04 19:02 | 50.04295 | 8.56982 | 360 ft | 19 kts | 71° |
| 2026-05-04 19:03 | 50.04339 | 8.57191 | 362 ft | 21 kts | 60° |
| 2026-05-04 19:03 | 50.04389 | 8.57375 | 363 ft | 17 kts | 69° |
| 2026-05-04 19:03 | 50.04430 | 8.57542 | 367 ft | 17 kts | 70° |
| 2026-05-04 19:03 | 50.04472 | 8.57719 | 370 ft | 19 kts | 69° |
| 2026-05-04 19:04 | 50.04517 | 8.57915 | 366 ft | 14 kts | 70° |
| 2026-05-04 19:04 | 50.04558 | 8.58021 | 362 ft | 12 kts | 30° |
| 2026-05-04 19:04 | 50.04648 | 8.57994 | 363 ft | 16 kts | 338° |
| 2026-05-04 19:04 | 50.04756 | 8.57932 | 358 ft | 17 kts | 339° |
| 2026-05-04 19:05 | 50.04850 | 8.57831 | 358 ft | 16 kts | 298° |
| 2026-05-04 19:05 | 50.04891 | 8.57677 | 360 ft | 15 kts | 292° |
| 2026-05-04 19:05 | 50.04932 | 8.57536 | 356 ft | 13 kts | 295° |
| 2026-05-04 19:05 | 50.04963 | 8.57436 | 363 ft | 7 kts | 297° |
| 2026-05-04 19:06 | 50.04995 | 8.57401 | 356 ft | 4 kts | 339° |
| 2026-05-04 19:06 | 50.05004 | 8.57416 | 356 ft | 2 kts | 73° |
| 2026-05-04 19:06 | 50.05005 | 8.57427 | 362 ft | 0 kts | 79° |